Time;durP1;ratioP1;P1;durP2;ratioP2;P2;SDS_P1;SDS_P2;PMS_P1;PMS_P2;Temp;Humidity;BMP_temperature;BMP_pressure;BME280_temperature;BME280_humidity;BME280_pressure;Samples;Min_cycle;Max_cycle;Signal;HPM_P1;HPM_P2
2021/05/02 00:01:48;;;;;;;5.15;3.72;;;8.50;67.80;;;;;;4992805;28;20034;-88
2021/05/02 00:04:13;;;;;;;3.28;2.97;;;8.50;67.80;;;;;;4993493;28;20065;-90
2021/05/02 00:06:39;;;;;;;3.15;2.83;;;8.50;67.80;;;;;;4993683;28;20491;-90
2021/05/02 00:09:05;;;;;;;5.30;3.60;;;8.50;67.80;;;;;;4993259;28;20038;-90
2021/05/02 00:11:32;;;;;;;5.75;3.67;;;8.50;67.90;;;;;;4991531;28;20559;-92
2021/05/02 00:13:57;;;;;;;4.15;3.30;;;8.50;67.90;;;;;;4993475;28;20025;-91
2021/05/02 00:16:23;;;;;;;5.25;3.80;;;8.50;67.80;;;;;;4993421;28;20113;-90
2021/05/02 00:18:49;;;;;;;4.70;3.33;;;8.50;67.90;;;;;;4993303;28;20495;-90
2021/05/02 00:21:15;;;;;;;4.57;3.58;;;8.40;68.00;;;;;;4993403;28;20027;-91
2021/05/02 00:23:41;;;;;;;5.65;3.70;;;8.40;68.10;;;;;;4992495;28;20034;-91
2021/05/02 00:26:09;;;;;;;5.00;3.97;;;8.30;68.30;;;;;;4993508;28;20033;-91
2021/05/02 00:28:37;;;;;;;4.57;3.45;;;8.20;68.40;;;;;;4995757;28;20524;-91
2021/05/02 00:31:07;;;;;;;4.25;3.00;;;8.20;68.40;;;;;;4998389;28;20041;-91
2021/05/02 00:33:35;;;;;;;4.30;3.30;;;8.20;68.50;;;;;;5002266;28;20425;-92
2021/05/02 00:36:02;;;;;;;5.75;3.35;;;8.20;68.40;;;;;;4998323;28;20076;-92
2021/05/02 00:38:28;;;;;;;4.63;3.03;;;8.20;68.50;;;;;;4998767;28;20018;-91
2021/05/02 00:40:56;;;;;;;4.25;3.00;;;8.10;68.40;;;;;;4995729;28;20029;-90
2021/05/02 00:43:55;;;;;;;3.53;2.80;;;8.20;69.00;;;;;;5007779;28;20045;-92
2021/05/02 00:46:33;;;;;;;4.22;2.85;;;8.20;68.30;;;;;;4992395;28;20161;-92
2021/05/02 00:49:17;;;;;;;6.13;3.45;;;8.20;68.20;;;;;;4987171;28;20061;-92
2021/05/02 00:51:47;;;;;;;6.45;3.20;;;8.20;68.10;;;;;;4975116;28;20023;-90
2021/05/02 00:54:19;;;;;;;4.45;3.13;;;8.20;68.10;;;;;;4992454;28;20302;-90
2021/05/02 00:56:59;;;;;;;;;;;8.20;68.10;;;;;;4993662;28;20033;-91
2021/05/02 00:59:41;;;;;;;5.22;3.03;;;8.30;68.00;;;;;;4993178;28;20331;-88
2021/05/02 01:02:09;;;;;;;3.37;2.90;;;8.20;68.00;;;;;;4992099;28;20034;-89
2021/05/02 01:04:34;;;;;;;3.75;2.90;;;8.20;68.10;;;;;;4990723;28;20030;-90
2021/05/02 01:07:03;;;;;;;5.07;3.20;;;8.20;68.10;;;;;;4991624;28;20060;-88
2021/05/02 01:09:31;;;;;;;5.03;3.40;;;8.20;68.10;;;;;;4991357;28;20029;-89
2021/05/02 01:12:01;;;;;;;5.10;3.38;;;8.20;68.20;;;;;;4990828;28;20570;-88
2021/05/02 01:14:31;;;;;;;4.93;3.20;;;8.10;68.30;;;;;;4991706;28;20022;-88
2021/05/02 01:16:57;;;;;;;3.95;2.95;;;8.10;68.40;;;;;;4992081;28;20026;-89
2021/05/02 01:19:26;;;;;;;4.13;2.90;;;8.10;68.30;;;;;;4992171;28;20031;-88
2021/05/02 01:21:57;;;;;;;4.28;3.22;;;8.10;68.30;;;;;;4991418;28;20027;-89
2021/05/02 01:24:23;;;;;;;4.05;3.28;;;8.10;68.30;;;;;;4998053;28;20030;-88
2021/05/02 01:26:49;;;;;;;3.95;2.35;;;8.10;68.30;;;;;;4991540;28;20026;-89
2021/05/02 01:29:15;;;;;;;3.40;2.85;;;8.10;68.30;;;;;;4992348;28;20415;-90
2021/05/02 01:31:42;;;;;;;5.47;2.85;;;8.10;68.30;;;;;;4990902;28;20022;-90
2021/05/02 01:34:09;;;;;;;4.00;3.10;;;8.20;68.30;;;;;;4978496;28;20010;-89
2021/05/02 01:36:35;;;;;;;5.10;3.15;;;8.20;68.40;;;;;;5012332;28;20033;-89
2021/05/02 01:39:04;;;;;;;5.15;3.72;;;8.10;68.30;;;;;;4992605;28;20679;-88
2021/05/02 01:41:30;;;;;;;3.83;2.85;;;8.20;68.50;;;;;;4991517;28;20429;-88
2021/05/02 01:43:55;;;;;;;3.70;3.15;;;8.20;68.50;;;;;;5003103;28;20117;-89
2021/05/02 01:46:31;;;;;;;5.93;3.50;;;8.20;68.50;;;;;;4990245;28;20023;-87
2021/05/02 01:48:56;;;;;;;4.65;3.55;;;8.20;68.60;;;;;;4990655;28;20068;-90
2021/05/02 01:51:22;;;;;;;4.22;3.33;;;8.20;68.60;;;;;;4994555;28;20042;-90
2021/05/02 01:53:49;;;;;;;4.35;3.45;;;8.20;68.60;;;;;;4997784;28;20405;-91
2021/05/02 01:56:16;;;;;;;5.72;4.00;;;8.20;68.60;;;;;;4995789;28;20037;-88
2021/05/02 01:58:42;;;;;;;3.90;2.95;;;8.10;68.70;;;;;;4995356;28;20409;-89
2021/05/02 02:01:15;;;;;;;5.47;3.50;;;8.10;68.80;;;;;;4994916;28;20087;-89
2021/05/02 02:03:44;;;;;;;3.95;3.20;;;8.10;69.00;;;;;;4994167;28;20078;-89
2021/05/02 02:06:12;;;;;;;4.05;2.97;;;8.00;68.90;;;;;;4995223;28;20046;-89
2021/05/02 02:08:38;;;;;;;4.65;3.40;;;8.00;68.90;;;;;;4993950;28;20059;-89
2021/05/02 02:11:04;;;;;;;4.43;3.13;;;8.00;69.00;;;;;;4994790;28;20041;-89
2021/05/02 02:13:30;;;;;;;5.13;2.90;;;7.90;69.00;;;;;;4995309;28;20037;-88
2021/05/02 02:15:55;;;;;;;5.50;3.30;;;7.80;69.00;;;;;;4995304;28;20022;-89
2021/05/02 02:18:21;;;;;;;3.72;2.95;;;7.80;69.10;;;;;;4996734;28;20027;-89
2021/05/02 02:20:52;;;;;;;4.53;2.58;;;7.70;69.10;;;;;;4995257;28;20030;-88
2021/05/02 02:23:28;;;;;;;5.22;3.05;;;7.70;69.30;;;;;;4993723;28;20069;-88
2021/05/02 02:25:54;;;;;;;4.85;2.83;;;7.60;69.30;;;;;;4995126;28;20070;-89
2021/05/02 02:28:22;;;;;;;4.22;2.58;;;7.50;69.30;;;;;;4995457;28;20374;-88
2021/05/02 02:31:08;;;;;;;4.30;2.40;;;7.50;69.40;;;;;;4994855;28;20481;-88
2021/05/02 02:33:35;;;;;;;5.28;2.28;;;7.50;69.40;;;;;;4995044;28;20035;-89
2021/05/02 02:36:01;;;;;;;2.58;2.00;;;7.50;69.50;;;;;;4994425;28;20026;-89
2021/05/02 02:38:28;;;;;;;3.35;2.25;;;7.40;69.50;;;;;;4995165;28;20420;-89
2021/05/02 02:40:57;;;;;;;3.70;2.33;;;7.40;69.50;;;;;;4994167;28;20025;-89
2021/05/02 02:43:29;;;;;;;3.25;2.17;;;7.40;69.50;;;;;;4989345;28;20048;-90
2021/05/02 02:45:57;;;;;;;2.17;1.98;;;7.40;69.50;;;;;;4994697;28;20527;-89
2021/05/02 02:48:26;;;;;;;2.72;2.17;;;7.50;69.40;;;;;;4994647;28;20030;-89
2021/05/02 02:50:56;;;;;;;3.00;2.10;;;7.50;69.30;;;;;;5001986;28;20049;-90
2021/05/02 02:53:22;;;;;;;2.88;2.13;;;7.50;69.20;;;;;;5003887;28;20038;-89
2021/05/02 02:55:58;;;;;;;4.45;2.35;;;7.50;69.10;;;;;;4993585;28;20037;-89
2021/05/02 02:58:27;;;;;;;3.72;2.22;;;7.60;69.10;;;;;;4993551;28;20026;-89
2021/05/02 03:00:53;;;;;;;2.40;2.03;;;7.50;69.10;;;;;;4994511;28;20018;-89
2021/05/02 03:03:21;;;;;;;3.10;2.33;;;7.60;69.20;;;;;;4992507;28;20082;-89
2021/05/02 03:05:48;;;;;;;2.00;1.80;;;7.60;69.10;;;;;;4994849;28;20062;-89
2021/05/02 03:08:15;;;;;;;2.85;2.20;;;7.60;69.20;;;;;;4994514;28;20113;-90
2021/05/02 03:10:41;;;;;;;3.88;2.53;;;7.60;69.20;;;;;;4998127;28;20030;-90
2021/05/02 03:13:10;;;;;;;5.28;2.90;;;7.60;69.10;;;;;;4999397;28;20038;-89
2021/05/02 03:15:38;;;;;;;2.95;2.33;;;7.60;69.30;;;;;;4975063;28;20035;-89
2021/05/02 03:18:05;;;;;;;4.88;2.70;;;7.60;69.30;;;;;;4990056;28;20030;-90
2021/05/02 03:20:35;;;;;;;5.38;2.58;;;7.60;69.30;;;;;;4992838;28;20420;-89
2021/05/02 03:23:21;;;;;;;3.70;2.60;;;7.50;69.60;;;;;;4994389;28;20065;-89
2021/05/02 03:25:48;;;;;;;3.22;2.30;;;7.60;69.40;;;;;;4994257;28;20034;-89
2021/05/02 03:28:20;;;;;;;3.67;2.50;;;7.60;69.40;;;;;;4992853;28;20034;-88
2021/05/02 03:30:46;;;;;;;4.22;2.58;;;7.50;69.40;;;;;;4994186;28;20026;-89
2021/05/02 03:33:14;;;;;;;3.30;2.40;;;7.50;69.40;;;;;;4994396;28;20037;-90
2021/05/02 03:35:44;;;;;;;6.53;3.22;;;7.50;69.40;;;;;;4994609;28;20085;-89
2021/05/02 03:38:21;;;;;;;4.00;2.60;;;7.50;69.60;;;;;;4993988;28;20466;-90
2021/05/02 03:40:47;;;;;;;3.10;2.58;;;7.50;69.60;;;;;;4994145;28;20056;-90
2021/05/02 03:43:12;;;;;;;4.90;2.38;;;7.50;69.50;;;;;;4985210;28;20527;-90
2021/05/02 03:45:38;;;;;;;4.30;2.50;;;7.50;69.60;;;;;;4993745;28;20117;-89
2021/05/02 03:48:04;;;;;;;4.07;2.47;;;7.50;69.60;;;;;;4993774;28;20030;-88
2021/05/02 03:50:30;;;;;;;3.83;2.45;;;7.50;69.70;;;;;;4993350;28;20027;-89
2021/05/02 03:52:55;;;;;;;3.90;2.33;;;7.40;69.60;;;;;;4993332;28;20065;-88
2021/05/02 03:55:21;;;;;;;3.20;2.42;;;7.40;69.70;;;;;;4994017;28;20064;-89
2021/05/02 03:57:46;;;;;;;2.97;2.30;;;7.40;69.70;;;;;;4994558;28;20029;-90
2021/05/02 04:00:12;;;;;;;3.78;2.17;;;7.30;69.80;;;;;;4993450;28;20021;-88
2021/05/02 04:02:38;;;;;;;4.15;2.53;;;7.30;69.90;;;;;;4983236;28;20049;-90
2021/05/02 04:05:04;;;;;;;3.05;2.10;;;7.20;70.00;;;;;;4993584;28;20113;-89
2021/05/02 04:07:30;;;;;;;3.47;2.25;;;7.20;70.10;;;;;;5003151;28;20396;-88
2021/05/02 04:09:55;;;;;;;3.45;2.13;;;7.20;70.20;;;;;;4993375;28;20102;-89
2021/05/02 04:12:21;;;;;;;2.95;2.08;;;7.20;70.20;;;;;;4991993;28;20463;-88
2021/05/02 04:14:47;;;;;;;4.93;2.67;;;7.20;70.30;;;;;;4992869;28;20026;-89
2021/05/02 04:17:14;;;;;;;3.53;2.38;;;7.20;70.30;;;;;;4991934;28;20019;-88
2021/05/02 04:19:42;;;;;;;5.68;2.38;;;7.10;70.40;;;;;;4992605;28;20113;-89
2021/05/02 04:22:08;;;;;;;3.08;2.13;;;7.10;70.60;;;;;;4998413;28;20096;-88
2021/05/02 04:24:34;;;;;;;2.70;1.67;;;7.00;70.60;;;;;;4994726;28;20034;-89
2021/05/02 04:27:01;;;;;;;3.47;2.20;;;7.10;70.70;;;;;;4993020;28;20570;-89
2021/05/02 04:29:29;;;;;;;2.83;2.40;;;7.00;70.60;;;;;;5004551;28;20377;-89
2021/05/02 04:31:55;;;;;;;3.13;2.33;;;7.00;70.70;;;;;;4997559;28;20053;-89
2021/05/02 04:34:22;;;;;;;3.45;2.30;;;7.00;70.80;;;;;;4981119;28;20026;-89
2021/05/02 04:36:49;;;;;;;2.90;2.00;;;7.00;70.80;;;;;;4979132;28;20035;-89
2021/05/02 04:39:15;;;;;;;4.10;2.25;;;7.00;70.80;;;;;;4991624;28;20077;-90
2021/05/02 04:41:41;;;;;;;5.00;2.47;;;7.00;70.80;;;;;;4992740;28;20031;-89
2021/05/02 04:44:07;;;;;;;2.25;2.05;;;7.00;70.90;;;;;;4991372;28;20030;-89
2021/05/02 04:46:33;;;;;;;2.85;1.95;;;6.90;70.90;;;;;;4997093;28;20488;-89
2021/05/02 04:49:00;;;;;;;3.38;1.90;;;6.90;70.90;;;;;;5003988;28;20030;-89
2021/05/02 04:51:25;;;;;;;4.20;2.10;;;6.90;70.90;;;;;;4992096;28;20477;-90
2021/05/02 04:53:51;;;;;;;1.98;1.73;;;6.90;71.00;;;;;;4991035;28;20037;-89
2021/05/02 04:56:17;;;;;;;4.25;2.25;;;6.90;71.00;;;;;;5002064;28;20353;-90
2021/05/02 04:58:42;;;;;;;2.10;1.90;;;6.90;71.10;;;;;;4994935;28;20117;-89
2021/05/02 05:01:09;;;;;;;2.85;2.00;;;6.90;71.10;;;;;;4991115;28;20377;-90
2021/05/02 05:03:35;;;;;;;3.67;2.20;;;6.90;71.00;;;;;;4992504;28;20037;-91
2021/05/02 05:06:01;;;;;;;3.30;2.35;;;6.90;71.00;;;;;;4992434;28;20041;-91
2021/05/02 05:08:26;;;;;;;3.95;2.33;;;6.90;70.90;;;;;;5004213;28;20033;-91
2021/05/02 05:10:52;;;;;;;4.80;2.25;;;7.00;70.90;;;;;;4996157;28;20018;-88
2021/05/02 05:13:18;;;;;;;3.50;2.00;;;7.00;70.90;;;;;;4991248;28;20061;-88
2021/05/02 05:15:43;;;;;;;4.53;2.50;;;7.00;71.20;;;;;;4991592;28;20034;-88
2021/05/02 05:18:09;;;;;;;4.43;2.75;;;7.10;70.90;;;;;;4995151;28;20027;-89
2021/05/02 05:20:34;;;;;;;5.70;2.20;;;7.10;71.00;;;;;;4990222;28;20041;-89
2021/05/02 05:23:00;;;;;;;2.25;1.90;;;7.10;70.90;;;;;;4992064;28;20042;-89
2021/05/02 05:25:26;;;;;;;3.13;1.92;;;7.30;71.60;;;;;;4990283;28;20469;-90
2021/05/02 05:27:51;;;;;;;3.42;2.10;;;7.60;70.10;;;;;;4992406;28;20030;-90
2021/05/02 05:30:17;;;;;;;3.75;2.25;;;7.70;69.60;;;;;;4992006;28;20077;-90
2021/05/02 05:32:43;;;;;;;3.45;2.22;;;8.60;69.10;;;;;;4992021;28;20026;-89
2021/05/02 05:35:09;;;;;;;2.83;1.90;;;9.80;66.40;;;;;;4990758;28;20021;-89
2021/05/02 05:37:34;;;;;;;3.10;2.40;;;11.00;63.70;;;;;;4990782;28;20540;-89
2021/05/02 05:40:00;;;;;;;4.45;2.25;;;12.10;60.80;;;;;;4992018;28;20018;-91
2021/05/02 05:42:26;;;;;;;4.50;2.30;;;13.00;58.60;;;;;;4992960;28;20547;-91
2021/05/02 05:44:51;;;;;;;3.08;2.10;;;13.70;56.90;;;;;;4992813;28;20022;-93
2021/05/02 05:47:17;;;;;;;4.13;1.90;;;14.50;55.90;;;;;;4995275;28;20054;-91
2021/05/02 05:49:43;;;;;;;4.20;1.90;;;15.20;53.80;;;;;;4991398;28;20473;-91
2021/05/02 05:52:09;;;;;;;2.78;1.90;;;15.60;52.60;;;;;;4991623;28;20089;-93
2021/05/02 05:54:39;;;;;;;2.17;1.70;;;16.00;51.30;;;;;;4990678;28;20393;-89
2021/05/02 05:57:05;;;;;;;4.85;2.30;;;16.30;50.60;;;;;;4990441;28;20053;-90
2021/05/02 05:59:30;;;;;;;3.35;1.70;;;16.50;49.60;;;;;;4992247;28;20022;-90
2021/05/02 06:01:56;;;;;;;3.17;1.60;;;17.00;49.20;;;;;;4991238;28;20046;-90
2021/05/02 06:04:21;;;;;;;4.45;1.90;;;17.30;48.30;;;;;;4996137;28;20130;-91
2021/05/02 06:06:47;;;;;;;2.97;1.80;;;17.70;47.60;;;;;;4991922;28;20030;-91
2021/05/02 06:09:13;;;;;;;2.13;1.70;;;18.10;46.90;;;;;;4991061;28;20033;-90
2021/05/02 06:11:38;;;;;;;3.22;1.70;;;18.30;45.80;;;;;;4994186;28;20034;-91
2021/05/02 06:14:05;;;;;;;4.63;1.90;;;18.40;45.20;;;;;;4993419;28;20019;-90
2021/05/02 06:16:31;;;;;;;4.57;2.05;;;18.40;44.70;;;;;;4992198;28;20362;-89
2021/05/02 06:18:58;;;;;;;2.83;1.67;;;18.60;43.80;;;;;;4990521;28;20029;-90
2021/05/02 06:21:25;;;;;;;3.50;1.55;;;18.50;43.80;;;;;;4990226;28;20137;-90
2021/05/02 06:23:53;;;;;;;3.05;1.52;;;18.80;43.20;;;;;;4991516;28;20034;-90
2021/05/02 06:26:19;;;;;;;3.90;2.40;;;18.80;42.80;;;;;;4991453;28;20045;-90
2021/05/02 06:28:49;;;;;;;1.92;1.50;;;18.80;42.50;;;;;;5010050;28;20033;-92
2021/05/02 06:31:16;;;;;;;2.97;1.63;;;18.80;42.60;;;;;;5011126;28;20034;-91
2021/05/02 06:33:42;;;;;;;2.88;1.55;;;18.90;42.40;;;;;;4991310;28;20026;-91
2021/05/02 06:36:08;;;;;;;4.03;1.80;;;18.70;42.30;;;;;;4992741;28;20022;-91
2021/05/02 06:38:34;;;;;;;2.92;1.77;;;18.60;42.40;;;;;;4996234;28;20085;-90
2021/05/02 06:41:00;;;;;;;5.00;1.75;;;18.40;42.70;;;;;;4995873;28;20053;-92
2021/05/02 06:43:26;;;;;;;1.75;1.50;;;18.30;42.80;;;;;;4996275;28;20501;-91
2021/05/02 06:45:52;;;;;;;3.35;1.50;;;18.30;42.80;;;;;;4996592;28;20097;-91
2021/05/02 06:48:18;;;;;;;2.17;1.25;;;18.20;42.90;;;;;;4996581;28;20029;-92
2021/05/02 06:50:44;;;;;;;3.13;1.40;;;18.50;42.90;;;;;;4995673;28;20137;-92
2021/05/02 06:53:09;;;;;;;2.85;1.33;;;19.00;42.40;;;;;;4999968;28;20033;-89
2021/05/02 06:55:35;;;;;;;2.05;1.38;;;19.10;42.30;;;;;;4995152;28;20034;-89
2021/05/02 06:58:00;;;;;;;1.50;1.05;;;18.90;41.40;;;;;;4994412;28;20386;-91
2021/05/02 07:00:27;;;;;;;2.03;1.38;;;18.80;41.90;;;;;;4993274;28;20659;-89
2021/05/02 07:02:53;;;;;;;2.85;1.30;;;18.70;41.60;;;;;;4994439;28;20026;-91
2021/05/02 07:05:19;;;;;;;2.90;1.48;;;18.70;41.50;;;;;;4994588;28;20026;-89
2021/05/02 07:07:45;;;;;;;3.53;1.45;;;18.50;40.90;;;;;;4995423;28;20030;-89
2021/05/02 07:10:11;;;;;;;2.25;1.27;;;17.90;42.30;;;;;;4995076;28;20015;-90
2021/05/02 07:12:37;;;;;;;2.47;1.30;;;17.80;42.40;;;;;;4994664;28;20040;-90
2021/05/02 07:15:03;;;;;;;2.13;1.20;;;17.20;43.00;;;;;;4997670;28;20101;-89
2021/05/02 07:17:31;;;;;;;4.60;1.80;;;17.10;43.70;;;;;;4997797;28;20046;-90
2021/05/02 07:19:56;;;;;;;2.13;1.50;;;16.20;43.70;;;;;;4999807;28;20019;-90
2021/05/02 07:22:23;;;;;;;2.88;1.40;;;15.40;45.20;;;;;;5000592;28;20038;-90
2021/05/02 07:24:49;;;;;;;2.40;1.40;;;15.10;45.80;;;;;;4998411;28;20030;-90
2021/05/02 07:27:15;;;;;;;3.45;1.52;;;14.30;46.90;;;;;;4998830;28;20030;-88
2021/05/02 07:29:41;;;;;;;1.77;1.10;;;13.80;48.10;;;;;;4996118;28;20022;-91
2021/05/02 07:32:07;;;;;;;2.15;1.35;;;13.40;49.40;;;;;;4997787;28;20367;-90
2021/05/02 07:34:32;;;;;;;3.38;1.63;;;13.00;50.20;;;;;;4995866;28;20079;-88
2021/05/02 07:36:58;;;;;;;2.53;1.45;;;13.90;48.60;;;;;;4994330;28;20023;-89
2021/05/02 07:39:23;;;;;;;2.03;1.17;;;13.70;48.40;;;;;;5009664;28;20485;-89
2021/05/02 07:41:49;;;;;;;2.85;1.50;;;13.70;48.10;;;;;;4994471;28;20110;-90
2021/05/02 07:44:15;;;;;;;2.45;1.10;;;13.40;49.20;;;;;;4995774;28;20084;-92
2021/05/02 07:46:41;;;;;;;2.83;1.00;;;14.40;48.50;;;;;;4995913;28;20023;-92
2021/05/02 07:49:06;;;;;;;1.25;1.08;;;15.00;47.30;;;;;;4994688;28;20113;-91
2021/05/02 07:51:33;;;;;;;1.08;0.90;;;14.30;47.10;;;;;;4994734;28;20049;-90
2021/05/02 07:53:58;;;;;;;2.00;1.30;;;14.20;47.80;;;;;;4993519;28;20030;-91
2021/05/02 07:56:24;;;;;;;2.25;1.10;;;13.60;47.50;;;;;;4983337;28;20014;-90
2021/05/02 07:58:50;;;;;;;1.67;1.10;;;13.40;48.00;;;;;;4992171;28;20033;-91
2021/05/02 08:01:15;;;;;;;2.25;1.30;;;13.00;48.40;;;;;;4994108;28;20026;-90
2021/05/02 08:03:41;;;;;;;3.08;1.30;;;12.60;49.00;;;;;;4994406;28;20046;-91
2021/05/02 08:06:07;;;;;;;1.30;1.20;;;12.30;49.80;;;;;;4993145;28;20025;-90
2021/05/02 08:08:32;;;;;;;1.38;0.98;;;12.00;50.00;;;;;;4994348;28;20026;-92
2021/05/02 08:10:58;;;;;;;1.92;1.55;;;11.80;50.70;;;;;;4994089;28;20109;-91
2021/05/02 08:13:23;;;;;;;1.42;1.10;;;11.70;51.10;;;;;;4992944;28;20032;-91
2021/05/02 08:15:49;;;;;;;1.90;1.10;;;11.80;51.00;;;;;;4994199;28;20429;-90
2021/05/02 08:18:14;;;;;;;1.67;1.23;;;12.00;51.10;;;;;;4993834;28;20026;-92
2021/05/02 08:20:40;;;;;;;2.53;1.27;;;12.30;50.40;;;;;;4992428;28;20358;-91
2021/05/02 08:23:07;;;;;;;3.03;1.10;;;12.60;49.80;;;;;;4994075;28;20042;-92
2021/05/02 08:25:33;;;;;;;1.63;1.23;;;12.70;48.90;;;;;;4994185;28;20022;-92
2021/05/02 08:27:58;;;;;;;2.38;1.17;;;12.70;48.40;;;;;;4979298;28;20474;-92
2021/05/02 08:30:24;;;;;;;2.38;1.00;;;12.50;48.40;;;;;;4988225;28;20493;-92
2021/05/02 08:32:50;;;;;;;1.95;1.10;;;12.40;49.00;;;;;;4993674;28;20469;-91
2021/05/02 08:35:17;;;;;;;2.85;1.15;;;12.30;49.10;;;;;;4993995;28;20050;-92
2021/05/02 08:37:42;;;;;;;2.70;1.10;;;12.20;49.60;;;;;;4992272;28;20010;-90
2021/05/02 08:40:09;;;;;;;1.27;1.17;;;12.30;50.00;;;;;;4993241;28;20076;-91
2021/05/02 08:42:35;;;;;;;1.75;0.85;;;12.40;49.90;;;;;;5001608;28;20038;-92
2021/05/02 08:45:00;;;;;;;1.30;0.95;;;12.30;49.70;;;;;;4992636;28;20030;-92
2021/05/02 08:47:29;;;;;;;2.35;1.05;;;12.20;49.10;;;;;;4990857;28;20030;-91
2021/05/02 08:49:55;;;;;;;1.17;0.90;;;12.30;49.10;;;;;;4991918;28;20023;-90
2021/05/02 08:52:20;;;;;;;1.13;0.95;;;12.40;48.80;;;;;;4993145;28;20033;-91
2021/05/02 08:54:47;;;;;;;2.13;1.15;;;12.50;47.90;;;;;;4993623;28;20033;-92
2021/05/02 08:57:13;;;;;;;3.28;1.17;;;12.60;46.80;;;;;;4994221;28;20037;-91
2021/05/02 08:59:40;;;;;;;1.42;1.20;;;12.60;46.80;;;;;;4991378;28;20019;-92
2021/05/02 09:02:07;;;;;;;2.72;1.20;;;12.70;46.90;;;;;;4990472;28;20089;-94
2021/05/02 09:04:33;;;;;;;1.98;1.10;;;12.70;46.90;;;;;;4992182;28;20031;-92
2021/05/02 09:07:00;;;;;;;1.33;0.90;;;12.70;47.20;;;;;;4993247;28;20022;-95
2021/05/02 09:09:26;;;;;;;1.05;0.80;;;12.60;47.30;;;;;;4992263;28;20460;-94
2021/05/02 09:11:52;;;;;;;1.13;0.70;;;12.50;47.60;;;;;;4991199;28;20553;-92
2021/05/02 09:14:22;;;;;;;1.30;0.80;;;12.70;47.60;;;;;;4991872;28;20048;-91
2021/05/02 09:16:56;;;;;;;1.83;1.20;;;12.80;47.10;;;;;;4993202;28;20031;-93
2021/05/02 09:19:24;;;;;;;1.42;0.90;;;12.90;46.30;;;;;;4991378;28;20026;-91
2021/05/02 09:22:10;;;;;;;1.27;1.00;;;13.00;45.70;;;;;;4993419;28;20022;-92
2021/05/02 09:24:36;;;;;;;1.77;1.00;;;13.10;45.40;;;;;;4992240;28;20018;-92
2021/05/02 09:27:06;;;;;;;1.75;1.08;;;13.20;45.20;;;;;;4988592;28;20385;-91
2021/05/02 09:29:33;;;;;;;1.92;1.00;;;13.20;44.80;;;;;;4993676;28;20109;-90
2021/05/02 09:32:00;;;;;;;1.20;0.90;;;13.10;44.40;;;;;;4992737;28;20473;-92
2021/05/02 09:34:26;;;;;;;1.83;1.00;;;13.00;44.60;;;;;;4993760;28;20014;-94
2021/05/02 09:37:02;;;;;;;2.45;1.02;;;13.10;44.60;;;;;;4994595;28;20029;-92
2021/05/02 09:39:48;;;;;;;1.20;0.95;;;13.10;44.60;;;;;;4993595;28;20061;-92
2021/05/02 09:42:37;;;;;;;2.65;1.08;;;13.10;44.60;;;;;;4993352;28;20088;-93
2021/05/02 09:45:08;;;;;;;2.47;1.00;;;13.10;44.80;;;;;;4993504;28;20030;-92
2021/05/02 09:47:38;;;;;;;2.10;0.90;;;13.30;44.60;;;;;;4993198;28;20018;-94
2021/05/02 09:50:04;;;;;;;1.55;1.00;;;13.40;44.50;;;;;;4992634;28;20069;-93
2021/05/02 09:52:55;;;;;;;1.45;0.90;;;13.40;44.20;;;;;;4986414;28;20954;-91
2021/05/02 09:55:24;;;;;;;0.98;0.90;;;13.30;44.00;;;;;;4991558;28;20019;-93
2021/05/02 09:57:54;;;;;;;1.67;1.00;;;13.20;44.40;;;;;;4990575;28;20034;-92
2021/05/02 10:00:35;;;;;;;2.15;1.08;;;13.10;44.60;;;;;;4988829;28;20054;-92
2021/05/02 10:03:14;;;;;;;1.73;0.90;;;13.10;45.00;;;;;;4993271;28;20038;-91
2021/05/02 10:06:01;;;;;;;1.77;0.90;;;12.90;45.20;;;;;;4993699;28;20492;-92
2021/05/02 10:08:33;;;;;;;1.15;0.85;;;12.70;45.50;;;;;;4987604;28;20080;-91
2021/05/02 10:11:03;;;;;;;1.60;1.20;;;12.50;45.80;;;;;;4992955;28;20031;-88
2021/05/02 10:13:29;;;;;;;2.03;0.98;;;12.30;46.10;;;;;;4993726;28;20022;-90
2021/05/02 10:15:55;;;;;;;2.03;1.00;;;12.10;46.50;;;;;;4993435;28;20042;-89
2021/05/02 10:18:20;;;;;;;1.02;0.98;;;11.90;46.90;;;;;;4994212;28;20129;-91
2021/05/02 10:20:48;;;;;;;1.95;1.10;;;11.90;47.30;;;;;;4995751;28;20513;-87
2021/05/02 10:23:15;;;;;;;1.00;0.95;;;11.90;47.50;;;;;;4995251;28;20040;-94
2021/05/02 10:25:42;;;;;;;2.60;1.00;;;11.80;47.70;;;;;;4991921;28;20018;-90
2021/05/02 10:28:14;;;;;;;1.85;0.90;;;11.80;47.90;;;;;;4996017;28;20496;-90
2021/05/02 10:30:41;;;;;;;1.00;0.80;;;11.90;48.00;;;;;;4994324;28;20037;-92
2021/05/02 10:33:10;;;;;;;2.15;1.00;;;12.00;48.10;;;;;;4996859;28;20037;-91
2021/05/02 10:35:51;;;;;;;1.42;0.98;;;12.20;47.70;;;;;;4997536;28;20460;-90
2021/05/02 10:38:20;;;;;;;2.25;0.80;;;12.50;47.60;;;;;;4979785;28;20141;-91
2021/05/02 10:40:48;;;;;;;1.10;0.90;;;12.80;47.10;;;;;;4990382;28;20048;-93
2021/05/02 10:43:30;;;;;;;1.50;1.10;;;13.00;45.90;;;;;;4995792;28;20038;-91
2021/05/02 10:45:57;;;;;;;3.05;0.90;;;13.10;45.50;;;;;;4995570;28;20102;-91
2021/05/02 10:48:22;;;;;;;2.00;0.80;;;13.20;45.20;;;;;;4995571;28;20058;-92
2021/05/02 10:50:50;;;;;;;1.55;1.00;;;13.30;44.80;;;;;;4995356;28;20475;-91
2021/05/02 10:53:19;;;;;;;1.55;0.85;;;13.30;43.80;;;;;;4996508;28;20042;-94
2021/05/02 10:55:45;;;;;;;0.95;0.90;;;13.40;43.40;;;;;;4995969;28;20474;-95
2021/05/02 10:58:26;;;;;;;1.33;0.80;;;13.50;43.30;;;;;;4996659;28;20076;-94
2021/05/02 11:01:04;;;;;;;1.73;0.98;;;13.50;42.40;;;;;;4996634;28;20027;-96
2021/05/02 11:03:38;;;;;;;1.77;0.88;;;13.60;42.60;;;;;;4982910;28;20050;-92
2021/05/02 11:06:38;;;;;;;0.82;0.82;;;13.70;42.40;;;;;;4987695;28;20026;-89
2021/05/02 11:09:05;;;;;;;0.85;0.85;;;13.80;41.70;;;;;;4986512;28;20060;-89
2021/05/02 11:11:34;;;;;;;1.15;0.90;;;13.90;41.40;;;;;;4993332;28;20050;-90
2021/05/02 11:14:08;;;;;;;0.70;0.70;;;14.00;41.20;;;;;;4994795;28;20026;-90
2021/05/02 11:16:34;;;;;;;1.23;0.68;;;14.20;41.30;;;;;;4992584;28;20026;-91
2021/05/02 11:19:00;;;;;;;0.88;0.80;;;14.00;40.80;;;;;;5001027;28;20022;-89
2021/05/02 11:22:01;;;;;;;1.10;0.70;;;14.00;41.20;;;;;;4991574;28;20034;-93
2021/05/02 11:24:43;;;;;;;1.17;0.82;;;14.00;41.70;;;;;;5000103;28;20030;-94
2021/05/02 11:27:48;;;;;;;0.70;0.70;;;14.00;41.70;;;;;;4994910;28;20049;-94
2021/05/02 11:30:17;;;;;;;1.33;0.98;;;13.90;41.90;;;;;;4998415;28;20041;-94
2021/05/02 11:32:44;;;;;;;0.80;0.80;;;13.90;41.80;;;;;;4993804;28;20045;-94
2021/05/02 11:35:12;;;;;;;1.10;1.00;;;13.90;42.10;;;;;;5004149;28;20073;-94
2021/05/02 11:37:53;;;;;;;1.52;0.90;;;13.80;41.60;;;;;;5001075;28;20030;-93
2021/05/02 11:40:25;;;;;;;1.67;0.80;;;13.80;41.90;;;;;;4980845;28;20081;-93
2021/05/02 11:43:01;;;;;;;1.15;0.90;;;13.90;41.90;;;;;;4994861;28;20034;-93
2021/05/02 11:45:42;;;;;;;1.25;0.95;;;13.80;41.60;;;;;;4995088;28;20057;-94
2021/05/02 11:48:50;;;;;;;2.28;1.00;;;13.80;41.10;;;;;;4994733;28;20030;-94
2021/05/02 11:51:19;;;;;;;1.40;0.90;;;13.70;41.30;;;;;;4994689;28;20022;-93
2021/05/02 11:53:57;;;;;;;0.85;0.85;;;13.90;41.50;;;;;;4981672;28;20105;-93
2021/05/02 11:56:32;;;;;;;0.82;0.70;;;13.80;41.40;;;;;;4994020;28;20030;-93
2021/05/02 11:59:08;;;;;;;1.02;0.93;;;13.90;41.80;;;;;;4982733;28;20027;-92
2021/05/02 12:01:38;;;;;;;1.85;0.80;;;13.70;41.60;;;;;;4980677;28;20040;-94
2021/05/02 12:04:17;;;;;;;0.90;0.90;;;13.50;42.20;;;;;;4994329;28;20030;-94
2021/05/02 12:06:53;;;;;;;1.23;0.80;;;13.40;42.50;;;;;;4993174;28;20512;-94
2021/05/02 12:09:21;;;;;;;1.10;0.82;;;13.40;43.00;;;;;;4994311;28;20031;-94
2021/05/02 12:11:54;;;;;;;1.00;0.88;;;13.70;43.20;;;;;;4992657;28;20473;-94
2021/05/02 12:14:25;;;;;;;2.08;0.70;;;14.00;42.80;;;;;;4992814;28;20026;-94
2021/05/02 12:16:53;;;;;;;0.77;0.60;;;14.20;42.20;;;;;;4993245;28;20046;-94
2021/05/02 12:19:19;;;;;;;1.38;0.80;;;14.60;42.10;;;;;;4994960;28;20457;-93
2021/05/02 12:21:48;;;;;;;1.08;0.73;;;14.90;41.80;;;;;;4993666;28;20069;-93
2021/05/02 12:24:20;;;;;;;1.05;0.90;;;14.90;40.60;;;;;;4992991;28;20022;-92
2021/05/02 12:26:46;;;;;;;0.60;0.60;;;14.70;40.40;;;;;;4992131;28;20662;-92
2021/05/02 12:29:26;;;;;;;0.73;0.70;;;14.80;40.70;;;;;;4993022;28;20481;-93
2021/05/02 12:32:01;;;;;;;1.67;0.90;;;15.00;40.70;;;;;;4994482;28;20042;-93
2021/05/02 12:34:32;;;;;;;1.00;0.90;;;15.20;39.90;;;;;;4995072;28;20101;-94
2021/05/02 12:37:08;;;;;;;1.17;1.00;;;15.30;39.60;;;;;;4993538;28;20034;-94
2021/05/02 12:39:35;;;;;;;1.00;0.90;;;15.50;38.90;;;;;;4984905;28;20023;-93
2021/05/02 12:42:03;;;;;;;1.48;0.93;;;15.50;38.70;;;;;;4989470;28;20046;-92
2021/05/02 12:44:29;;;;;;;1.75;0.90;;;15.40;38.80;;;;;;4993654;28;20114;-93
2021/05/02 12:46:57;;;;;;;2.45;1.30;;;15.10;38.90;;;;;;4992752;28;20030;-90
2021/05/02 12:49:24;;;;;;;1.80;1.20;;;14.90;39.50;;;;;;5007050;28;20027;-91
2021/05/02 12:52:03;;;;;;;0.75;0.75;;;14.60;39.70;;;;;;5004256;28;20014;-96
2021/05/02 12:54:41;;;;;;;0.70;0.70;;;14.30;40.50;;;;;;4999335;28;20076;-92
2021/05/02 12:57:12;;;;;;;0.93;0.70;;;14.10;41.10;;;;;;4994425;28;20026;-92
2021/05/02 13:00:00;;;;;;;0.70;0.70;;;13.90;41.60;;;;;;4996476;28;20026;-92